Time,TemperatureF,DewpointF,PressureIn,WindDirection,WindDirectionDegrees,WindSpeedMPH,WindSpeedGustMPH,Humidity,HourlyPrecipIn,Conditions,Clouds,dailyrainin,SolarRadiationWatts/m^2,SoftwareType,DateUTC
2013-07-03 00:01:00,76.0,73.0,-100.00,ENE,62,5.0,8.0,89,0.00,,,3.13,0.000000,,2013-07-03 04:01:00,
2013-07-03 00:11:00,76.0,73.0,-100.00,ENE,62,5.0,8.0,89,0.00,,,3.13,0.000000,,2013-07-03 04:11:00,
2013-07-03 00:22:00,76.0,73.0,-100.00,ENE,62,5.0,8.0,89,0.00,,,3.13,0.000000,,2013-07-03 04:22:00,
2013-07-03 00:34:00,76.0,73.0,-100.00,ENE,62,5.0,8.0,89,0.00,,,3.13,0.000000,,2013-07-03 04:34:00,
2013-07-03 00:38:00,77.0,74.0,-100.00,ESE,107,4.0,9.0,89,0.00,,,3.13,0.000000,,2013-07-03 04:38:00,
2013-07-03 01:02:00,77.0,74.0,-100.00,ESE,107,4.0,9.0,89,0.00,,,3.13,0.000000,,2013-07-03 05:02:00,
2013-07-03 01:11:00,77.0,74.0,-100.00,ESE,107,4.0,9.0,89,0.00,,,3.13,0.000000,,2013-07-03 05:11:00,
2013-07-03 01:23:00,77.0,74.0,-100.00,ESE,107,4.0,9.0,89,0.00,,,3.13,0.000000,,2013-07-03 05:23:00,
2013-07-03 01:38:00,78.0,74.0,-100.00,ESE,116,4.0,9.0,89,0.00,,,3.13,0.000000,,2013-07-03 05:38:00,
2013-07-03 02:07:00,78.0,74.0,-100.00,ESE,116,4.0,9.0,89,0.00,,,3.13,0.000000,,2013-07-03 06:07:00,
2013-07-03 02:15:00,78.0,74.0,-100.00,ESE,116,4.0,9.0,89,0.00,,,3.13,0.000000,,2013-07-03 06:15:00,
2013-07-03 02:25:00,78.0,74.0,-100.00,ESE,116,4.0,9.0,89,0.00,,,3.13,0.000000,,2013-07-03 06:25:00,
2013-07-03 03:06:00,79.0,75.0,-100.00,SE,133,5.0,9.0,88,0.00,,,3.13,0.000000,,2013-07-03 07:06:00,
2013-07-03 03:27:00,79.0,75.0,-100.00,SE,133,5.0,9.0,88,0.00,,,3.13,0.000000,,2013-07-03 07:27:00,
2013-07-03 03:37:00,79.0,75.0,-100.00,SE,133,5.0,9.0,88,0.00,,,3.13,0.000000,,2013-07-03 07:37:00,
2013-07-03 04:10:00,78.0,73.0,-100.00,SE,144,5.0,13.0,86,0.00,,,3.13,0.000000,,2013-07-03 08:10:00,
2013-07-03 04:16:00,78.0,73.0,-100.00,SE,144,5.0,13.0,86,0.00,,,3.13,0.000000,,2013-07-03 08:16:00,
2013-07-03 04:37:00,78.0,73.0,-100.00,SE,144,5.0,13.0,86,0.00,,,3.13,0.000000,,2013-07-03 08:37:00,
2013-07-03 04:38:00,79.0,73.0,-100.00,SE,137,4.0,12.0,83,0.00,,,3.13,0.000000,,2013-07-03 08:38:00,
2013-07-03 05:07:00,79.0,73.0,-100.00,SE,137,4.0,12.0,83,0.00,,,3.13,0.000000,,2013-07-03 09:07:00,
2013-07-03 05:16:00,79.0,73.0,-100.00,SE,137,4.0,12.0,83,0.00,,,3.13,0.000000,,2013-07-03 09:16:00,
2013-07-03 05:26:00,79.0,73.0,-100.00,SE,137,4.0,12.0,83,0.00,,,3.13,0.000000,,2013-07-03 09:26:00,
2013-07-03 06:06:00,78.0,74.0,-100.00,SE,145,3.0,9.0,87,0.00,,,3.13,0.000000,,2013-07-03 10:06:00,
2013-07-03 06:16:00,78.0,74.0,-100.00,SE,145,3.0,9.0,87,0.00,,,3.13,0.000000,,2013-07-03 10:16:00,
2013-07-03 06:28:00,78.0,74.0,-100.00,SE,145,3.0,9.0,87,0.00,,,3.13,0.000000,,2013-07-03 10:28:00,
2013-07-03 06:36:00,78.0,74.0,-100.00,SE,145,3.0,9.0,87,0.00,,,3.13,0.000000,,2013-07-03 10:36:00,
2013-07-03 06:38:00,79.0,74.0,-100.00,SE,128,5.0,8.0,86,0.00,,,3.13,0.000000,,2013-07-03 10:38:00,
2013-07-03 07:16:00,79.0,74.0,-100.00,SE,128,5.0,8.0,86,0.00,,,3.13,0.000000,,2013-07-03 11:16:00,
2013-07-03 07:25:00,79.0,74.0,-100.00,SE,128,5.0,8.0,86,0.00,,,3.13,0.000000,,2013-07-03 11:25:00,
2013-07-03 08:16:00,81.0,76.0,-100.00,SE,133,5.0,10.0,84,0.00,,,3.13,13.000000,,2013-07-03 12:16:00,
2013-07-03 08:25:00,81.0,76.0,-100.00,SE,133,5.0,10.0,84,0.00,,,3.13,13.000000,,2013-07-03 12:25:00,
2013-07-03 08:37:00,81.0,76.0,-100.00,SE,133,5.0,10.0,84,0.00,,,3.13,13.000000,,2013-07-03 12:37:00,
2013-07-03 09:08:00,82.0,76.0,-100.00,SE,128,5.0,9.0,81,0.00,,,3.13,86.000000,,2013-07-03 13:08:00,
2013-07-03 09:17:00,82.0,76.0,-100.00,SE,128,5.0,9.0,81,0.00,,,3.13,86.000000,,2013-07-03 13:17:00,
2013-07-03 09:25:00,82.0,76.0,-100.00,SE,128,5.0,9.0,81,0.00,,,3.13,86.000000,,2013-07-03 13:25:00,
2013-07-03 09:36:00,82.0,76.0,-100.00,SE,128,5.0,9.0,81,0.00,,,3.13,86.000000,,2013-07-03 13:36:00,
2013-07-03 09:38:00,83.0,75.0,-100.00,SE,139,6.0,12.0,77,0.00,,,3.13,186.000000,,2013-07-03 13:38:00,
2013-07-03 10:15:00,83.0,75.0,-100.00,SE,139,6.0,12.0,77,0.00,,,3.13,186.000000,,2013-07-03 14:15:00,
2013-07-03 10:26:00,83.0,75.0,-100.00,SE,139,6.0,12.0,77,0.00,,,3.13,186.000000,,2013-07-03 14:26:00,
2013-07-03 11:06:00,85.0,75.0,-100.00,SE,141,7.0,13.0,71,0.00,,,3.13,361.000000,,2013-07-03 15:06:00,
2013-07-03 11:15:00,85.0,75.0,-100.00,SE,141,7.0,13.0,71,0.00,,,3.13,361.000000,,2013-07-03 15:15:00,
2013-07-03 11:37:00,85.0,75.0,-100.00,SE,141,7.0,13.0,71,0.00,,,3.13,361.000000,,2013-07-03 15:37:00,
2013-07-03 11:38:00,84.0,74.0,-100.00,SE,145,7.0,13.0,72,0.00,,,3.13,284.000000,,2013-07-03 15:38:00,
2013-07-03 12:23:00,84.0,74.0,-100.00,SE,145,7.0,13.0,72,0.00,,,3.13,284.000000,,2013-07-03 16:23:00,
2013-07-03 12:38:00,86.0,75.0,-100.00,SE,137,7.0,16.0,71,0.00,,,3.13,318.000000,,2013-07-03 16:38:00,
2013-07-03 13:16:00,86.0,75.0,-100.00,SE,137,7.0,16.0,71,0.00,,,3.13,318.000000,,2013-07-03 17:16:00,
2013-07-03 13:25:00,86.0,75.0,-100.00,SE,137,7.0,16.0,71,0.00,,,3.13,318.000000,,2013-07-03 17:25:00,
2013-07-03 14:16:00,85.0,77.0,-100.00,SE,146,6.0,14.0,77,0.00,,,3.13,412.000000,,2013-07-03 18:16:00,
2013-07-03 14:25:00,85.0,77.0,-100.00,SE,146,6.0,14.0,77,0.00,,,3.13,412.000000,,2013-07-03 18:25:00,
2013-07-03 14:37:00,85.0,77.0,-100.00,SE,146,6.0,14.0,77,0.00,,,3.13,412.000000,,2013-07-03 18:37:00,
2013-07-03 14:38:00,86.0,75.0,-100.00,SE,142,9.0,18.0,71,0.00,,,3.13,503.000000,,2013-07-03 18:38:00,
2013-07-03 15:16:00,86.0,75.0,-100.00,SE,142,9.0,18.0,71,0.00,,,3.13,503.000000,,2013-07-03 19:16:00,
2013-07-03 15:30:00,86.0,75.0,-100.00,SE,142,9.0,18.0,71,0.00,,,3.13,503.000000,,2013-07-03 19:30:00,
2013-07-03 16:14:00,85.0,75.0,-100.00,SSE,147,10.0,18.0,72,0.00,,,3.11,308.000000,,2013-07-03 20:14:00,
2013-07-03 16:25:00,85.0,75.0,-100.00,SSE,147,10.0,18.0,72,0.00,,,3.11,308.000000,,2013-07-03 20:25:00,
2013-07-03 16:37:00,85.0,75.0,-100.00,SSE,147,10.0,18.0,72,0.00,,,3.11,308.000000,,2013-07-03 20:37:00,
2013-07-03 17:14:00,78.0,69.0,-100.00,SE,137,8.0,22.0,73,0.01,,,1.27,145.000000,,2013-07-03 21:14:00,
2013-07-03 17:27:00,78.0,69.0,-100.00,SE,137,8.0,22.0,73,0.01,,,1.27,145.000000,,2013-07-03 21:27:00,
2013-07-03 17:35:00,78.0,69.0,-100.00,SE,137,8.0,22.0,73,0.01,,,1.27,145.000000,,2013-07-03 21:35:00,
2013-07-03 18:15:00,79.0,73.0,-100.00,South,179,11.0,23.0,81,0.01,,,0.72,58.000000,,2013-07-03 22:15:00,
2013-07-03 18:26:00,79.0,73.0,-100.00,South,179,11.0,23.0,81,0.01,,,0.72,58.000000,,2013-07-03 22:26:00,
2013-07-03 18:37:00,79.0,73.0,-100.00,South,179,11.0,23.0,81,0.01,,,0.72,58.000000,,2013-07-03 22:37:00,
2013-07-03 18:38:00,79.0,68.0,-100.00,SSW,193,9.0,19.0,69,0.00,,,0.45,57.000000,,2013-07-03 22:38:00,
2013-07-03 19:06:00,79.0,68.0,-100.00,SSW,193,9.0,19.0,69,0.00,,,0.45,57.000000,,2013-07-03 23:06:00,
2013-07-03 19:14:00,79.0,68.0,-100.00,SSW,193,9.0,19.0,69,0.00,,,0.45,57.000000,,2013-07-03 23:14:00,
2013-07-03 19:25:00,79.0,68.0,-100.00,SSW,193,9.0,19.0,69,0.00,,,0.45,57.000000,,2013-07-03 23:25:00,
2013-07-03 20:05:00,77.0,70.0,-100.00,ESE,104,2.0,15.0,79,0.00,,,0.15,30.000000,,2013-07-04 00:05:00,
2013-07-03 20:37:00,77.0,70.0,-100.00,ESE,104,2.0,15.0,79,0.00,,,0.15,30.000000,,2013-07-04 00:37:00,
2013-07-03 21:05:00,75.0,72.0,-100.00,SSE,156,4.0,15.0,89,0.03,,,0.09,4.000000,,2013-07-04 01:05:00,
2013-07-03 21:16:00,75.0,72.0,-100.00,SSE,156,4.0,15.0,89,0.03,,,0.09,4.000000,,2013-07-04 01:16:00,
2013-07-03 21:23:00,75.0,72.0,-100.00,SSE,156,4.0,15.0,89,0.03,,,0.09,4.000000,,2013-07-04 01:23:00,
2013-07-03 21:38:00,75.0,72.0,-100.00,SE,132,2.0,7.0,90,0.02,,,0.08,0.000000,,2013-07-04 01:38:00,
2013-07-03 22:08:00,75.0,72.0,-100.00,SE,132,2.0,7.0,90,0.02,,,0.08,0.000000,,2013-07-04 02:08:00,
2013-07-03 22:15:00,75.0,72.0,-100.00,SE,132,2.0,7.0,90,0.02,,,0.08,0.000000,,2013-07-04 02:15:00,
2013-07-03 22:24:00,75.0,72.0,-100.00,SE,132,2.0,7.0,90,0.02,,,0.08,0.000000,,2013-07-04 02:24:00,
2013-07-03 23:15:00,78.0,73.0,-100.00,East,92,8.0,15.0,84,0.00,,,0.07,0.000000,,2013-07-04 03:15:00,
2013-07-03 23:27:00,78.0,73.0,-100.00,East,92,8.0,15.0,84,0.00,,,0.07,0.000000,,2013-07-04 03:27:00,
2013-07-03 23:35:00,78.0,73.0,-100.00,East,92,8.0,15.0,84,0.00,,,0.07,0.000000,,2013-07-04 03:35:00,